createdAt,value
2019-02-22T00:00:19.511Z,94.81
2019-02-22T00:01:20.005Z,95.07
2019-02-22T00:02:19.484Z,95.07
2019-02-22T00:03:19.477Z,95.07
2019-02-22T00:04:19.484Z,94.92
2019-02-22T00:05:19.457Z,95.49
2019-02-22T00:06:19.439Z,95.64
2019-02-22T00:07:19.456Z,95.64
2019-02-22T00:08:19.445Z,95.69
2019-02-22T00:09:19.417Z,95.43
2019-02-22T00:10:19.446Z,95.53
2019-02-22T00:11:19.397Z,96.25
2019-02-22T00:12:19.376Z,96.15
2019-02-22T00:13:19.690Z,95.53
2019-02-22T00:14:19.371Z,95.43
2019-02-22T00:15:19.352Z,95.84
2019-02-22T00:16:19.411Z,95.23
2019-02-22T00:17:19.313Z,95.23
2019-02-22T00:18:19.316Z,95.94
2019-02-22T00:19:19.290Z,95.53
2019-02-22T00:20:19.349Z,95.94
2019-02-22T00:21:19.288Z,95.59
2019-02-22T00:22:19.323Z,95.74
2019-02-22T00:23:19.252Z,95.94
2019-02-22T00:24:19.262Z,95.53
2019-02-22T00:25:19.747Z,95.74
2019-02-22T00:26:19.245Z,95.32
2019-02-22T00:27:19.227Z,96.25
2019-02-22T00:28:19.235Z,95.28
2019-02-22T00:29:19.209Z,95.79
2019-02-22T00:30:21.511Z,95.84
2019-02-22T00:31:19.173Z,96.25
2019-02-22T00:32:19.622Z,95.23
2019-02-22T00:33:19.162Z,95.53
2019-02-22T00:34:19.242Z,95.23
2019-02-22T00:35:19.137Z,96.25
2019-02-22T00:36:19.194Z,96.25
2019-02-22T00:37:19.177Z,96.10
2019-02-22T00:38:19.092Z,95.84
2019-02-22T00:39:19.447Z,96.04
2019-02-22T00:40:19.112Z,96.10
2019-02-22T00:41:19.070Z,95.49
2019-02-22T00:42:19.040Z,95.79
2019-02-22T00:43:19.048Z,94.77
2019-02-22T00:44:19.164Z,94.56
2019-02-22T00:45:21.754Z,95.07
2019-02-22T00:46:19.522Z,94.77
2019-02-22T00:47:18.994Z,94.36
2019-02-22T00:48:18.990Z,95.02
2019-02-22T00:49:18.997Z,95.43
2019-02-22T00:50:18.959Z,95.49
2019-02-22T00:51:18.950Z,95.79
2019-02-22T00:52:19.202Z,95.53
2019-02-22T00:53:20.148Z,95.64
2019-02-22T00:54:18.924Z,95.23
2019-02-22T00:55:18.920Z,95.94
2019-02-22T00:56:18.905Z,96.25
2019-02-22T00:57:18.895Z,96.20
2019-02-22T00:58:19.756Z,96.56
2019-02-22T00:59:18.864Z,96.45
2019-02-22T01:00:19.374Z,95.94
2019-02-22T01:01:18.840Z,95.84
2019-02-22T01:02:18.834Z,95.84
2019-02-22T01:03:18.837Z,96.35
2019-02-22T01:04:18.854Z,96.35
2019-02-22T01:05:18.836Z,96.56
2019-02-22T01:06:18.785Z,96.15
2019-02-22T01:07:18.801Z,96.35
2019-02-22T01:08:18.774Z,96.25
2019-02-22T01:09:18.767Z,96.20
2019-02-22T01:10:18.886Z,95.64
2019-02-22T01:11:18.758Z,96.45
2019-02-22T01:12:18.733Z,96.56
2019-02-22T01:13:19.033Z,96.51
2019-02-22T01:14:18.707Z,96.00
2019-02-22T01:15:18.722Z,96.41
2019-02-22T01:16:18.712Z,96.00
2019-02-22T01:17:18.671Z,95.07
2019-02-22T01:18:18.680Z,95.07
2019-02-22T01:19:18.642Z,94.98
2019-02-22T01:20:20.117Z,95.49
2019-02-22T01:21:18.648Z,95.59
2019-02-22T01:22:18.662Z,94.98
2019-02-22T01:23:18.597Z,95.28
2019-02-22T01:24:19.233Z,95.53
2019-02-22T01:25:18.610Z,95.43
2019-02-22T01:26:18.592Z,94.56
2019-02-22T01:27:18.931Z,95.49
2019-02-22T01:28:18.838Z,95.39
2019-02-22T01:29:18.541Z,95.32
2019-02-22T01:30:18.531Z,95.07
2019-02-22T01:31:18.529Z,95.07
2019-02-22T01:32:18.531Z,94.87
2019-02-22T01:33:18.525Z,94.67
2019-02-22T01:34:19.217Z,94.67
2019-02-22T01:35:18.473Z,94.87
2019-02-22T01:36:18.454Z,94.87
2019-02-22T01:37:18.462Z,94.05
2019-02-22T01:38:18.473Z,93.74
2019-02-22T01:39:18.456Z,93.95
2019-02-22T01:40:18.461Z,93.95
2019-02-22T01:41:18.829Z,94.26
2019-02-22T01:42:18.398Z,94.26
2019-02-22T01:43:18.415Z,94.46
2019-02-22T01:44:18.385Z,95.12
2019-02-22T01:45:18.381Z,95.28
2019-02-22T01:46:18.712Z,95.43
2019-02-22T01:47:18.347Z,95.23
2019-02-22T01:48:18.852Z,95.23
2019-02-22T01:49:18.338Z,95.23
2019-02-22T01:50:18.309Z,95.64
2019-02-22T01:51:18.297Z,95.64
2019-02-22T01:52:18.374Z,95.69
2019-02-22T01:53:18.303Z,95.90
2019-02-22T01:54:18.273Z,95.43
2019-02-22T01:55:18.702Z,95.43
2019-02-22T01:56:18.251Z,95.53
2019-02-22T01:57:18.226Z,95.64
2019-02-22T01:58:18.276Z,95.43
2019-02-22T01:59:18.206Z,95.84
2019-02-22T02:00:18.226Z,95.64
2019-02-22T02:01:18.198Z,95.53
2019-02-22T02:02:18.545Z,95.74
2019-02-22T02:03:18.217Z,95.23
2019-02-22T02:04:18.214Z,95.94
2019-02-22T02:05:18.151Z,96.15
2019-02-22T02:06:18.164Z,96.30
2019-02-22T02:07:18.122Z,95.94
2019-02-22T02:08:18.112Z,95.89
2019-02-22T02:09:18.606Z,96.15
2019-02-22T02:10:18.150Z,96.19
2019-02-22T02:11:18.091Z,95.98
2019-02-22T02:12:18.092Z,95.98
2019-02-22T02:13:18.063Z,96.25
2019-02-22T02:14:18.042Z,95.94
2019-02-22T02:15:18.053Z,95.98
2019-02-22T02:16:18.447Z,96.50
2019-02-22T02:17:18.027Z,96.30
2019-02-22T02:18:18.006Z,96.30
2019-02-22T02:19:18.005Z,95.68
2019-02-22T02:20:18.030Z,96.09
2019-02-22T02:21:17.978Z,96.30
2019-02-22T02:22:18.206Z,96.09
2019-02-22T02:23:18.466Z,96.19
2019-02-22T02:24:18.737Z,96.40
2019-02-22T02:25:17.921Z,95.98
2019-02-22T02:26:17.921Z,96.09
2019-02-22T02:27:17.905Z,96.30
2019-02-22T02:28:17.979Z,96.15
2019-02-22T02:29:17.882Z,96.25
2019-02-22T02:30:19.319Z,95.94
2019-02-22T02:31:17.863Z,96.15
2019-02-22T02:32:17.861Z,95.53
2019-02-22T02:33:17.843Z,95.49
2019-02-22T02:34:18.682Z,95.90
2019-02-22T02:35:17.845Z,94.61
2019-02-22T02:36:17.831Z,94.92
2019-02-22T02:37:18.142Z,94.61
2019-02-22T02:38:17.791Z,94.20
2019-02-22T02:39:17.790Z,93.85
2019-02-22T02:40:18.069Z,93.99
2019-02-22T02:41:17.769Z,93.89
2019-02-22T02:42:17.765Z,93.95
2019-02-22T02:43:17.734Z,94.20
2019-02-22T02:44:18.199Z,94.81
2019-02-22T02:45:17.798Z,94.61
2019-02-22T02:46:17.757Z,95.12
2019-02-22T02:47:17.711Z,95.43
2019-02-22T02:48:17.695Z,95.43
2019-02-22T02:49:17.685Z,95.84
2019-02-22T02:50:17.655Z,95.43
2019-02-22T02:51:18.038Z,95.23
2019-02-22T02:52:17.692Z,95.43
2019-02-22T02:53:17.632Z,95.12
2019-02-22T02:54:17.632Z,95.53
2019-02-22T02:55:17.597Z,95.23
2019-02-22T02:56:17.605Z,95.27
2019-02-22T02:57:17.590Z,95.84
2019-02-22T02:58:18.736Z,95.02
2019-02-22T02:59:17.558Z,94.81
2019-02-22T03:01:42.377Z,94.81
2019-02-22T03:02:42.186Z,94.92
2019-02-22T03:03:42.176Z,95.43
2019-02-22T03:04:42.151Z,94.81
2019-02-22T03:05:42.155Z,95.02
2019-02-22T03:06:42.152Z,95.02
2019-02-22T03:07:42.466Z,94.81
2019-02-22T03:08:42.134Z,94.77
2019-02-22T03:09:48.940Z,94.71
2019-02-22T03:10:42.092Z,95.02
2019-02-22T03:11:42.086Z,94.87
2019-02-22T03:12:42.074Z,94.87
2019-02-22T03:13:42.095Z,94.98
2019-02-22T03:14:42.067Z,94.15
2019-02-22T03:15:42.036Z,93.74
2019-02-22T03:16:42.022Z,94.15
2019-02-22T03:17:42.027Z,93.95
2019-02-22T03:18:42.015Z,93.95
2019-02-22T03:19:43.174Z,94.05
2019-02-22T03:20:41.984Z,93.74
2019-02-22T03:21:41.971Z,93.54
2019-02-22T03:22:41.969Z,94.05
2019-02-22T03:23:41.975Z,93.79
2019-02-22T03:24:41.942Z,93.68
2019-02-22T03:25:42.036Z,94.26
2019-02-22T03:26:42.213Z,93.95
2019-02-22T03:27:41.937Z,93.89
2019-02-22T03:28:41.901Z,94.30
2019-02-22T03:29:41.896Z,93.99
2019-02-22T03:30:41.903Z,94.30
2019-02-22T03:31:41.945Z,93.99
2019-02-22T03:32:41.872Z,94.61
2019-02-22T03:33:42.262Z,94.61
2019-02-22T03:34:41.841Z,94.92
2019-02-22T03:35:41.824Z,94.71
2019-02-22T03:36:41.836Z,94.92
2019-02-22T03:37:41.914Z,95.12
2019-02-22T03:38:41.839Z,94.71
2019-02-22T03:39:41.787Z,94.61
2019-02-22T03:40:42.115Z,95.02
2019-02-22T03:41:41.772Z,94.71
2019-02-22T03:42:41.757Z,94.51
2019-02-22T03:43:41.793Z,95.12
2019-02-22T03:44:41.724Z,94.92
2019-02-22T03:45:41.721Z,95.23
2019-02-22T03:46:41.708Z,95.23
2019-02-22T03:47:42.023Z,95.12
2019-02-22T03:48:42.443Z,94.92
2019-02-22T03:49:41.722Z,94.96
2019-02-22T03:50:41.673Z,95.02
2019-02-22T03:51:41.671Z,94.96
2019-02-22T03:52:41.648Z,94.76
2019-02-22T03:53:41.636Z,95.02
2019-02-22T03:54:41.966Z,94.81
2019-02-22T03:55:41.780Z,95.68
2019-02-22T03:56:41.607Z,94.92
2019-02-22T03:57:41.596Z,94.92
2019-02-22T03:58:41.602Z,94.71
2019-02-22T03:59:41.577Z,95.23
2019-02-22T04:00:41.564Z,94.55
2019-02-22T04:01:41.587Z,94.30
2019-02-22T04:02:41.537Z,94.34
2019-02-22T04:03:41.531Z,94.10
2019-02-22T04:04:41.567Z,94.51
2019-02-22T04:05:41.514Z,94.20
2019-02-22T04:06:41.525Z,94.30
2019-02-22T04:07:41.833Z,94.40
2019-02-22T04:08:41.510Z,93.89
2019-02-22T04:09:41.476Z,93.99
2019-02-22T04:10:41.472Z,93.99
2019-02-22T04:11:45.703Z,94.10
2019-02-22T04:12:41.447Z,93.93
2019-02-22T04:13:41.917Z,94.10
2019-02-22T04:14:41.724Z,93.79
2019-02-22T04:15:41.413Z,93.17
2019-02-22T04:16:41.419Z,93.17
2019-02-22T04:17:41.435Z,92.72
2019-02-22T04:18:41.405Z,92.35
2019-02-22T04:19:41.416Z,92.76
2019-02-22T04:20:41.358Z,92.55
2019-02-22T04:21:41.645Z,92.46
2019-02-22T04:22:44.271Z,92.10
2019-02-22T04:23:41.319Z,92.21
2019-02-22T04:24:41.319Z,91.90
2019-02-22T04:25:41.347Z,92.35
2019-02-22T04:26:41.289Z,92.14
2019-02-22T04:27:41.267Z,92.51
2019-02-22T04:28:41.586Z,92.14
2019-02-22T04:29:41.264Z,92.04
2019-02-22T04:30:41.246Z,92.31
2019-02-22T04:31:41.312Z,92.14
2019-02-22T04:32:41.241Z,92.14
2019-02-22T04:33:41.215Z,92.46
2019-02-22T04:34:41.227Z,92.72
2019-02-22T04:35:41.497Z,92.46
2019-02-22T04:36:41.193Z,92.41
2019-02-22T04:37:41.207Z,92.46
2019-02-22T04:38:41.152Z,92.66
2019-02-22T04:39:41.161Z,92.35
2019-02-22T04:40:41.131Z,92.55
2019-02-22T04:41:41.200Z,92.86
2019-02-22T04:42:41.502Z,92.55
2019-02-22T04:43:41.156Z,92.66
2019-02-22T04:44:41.102Z,92.86
2019-02-22T04:45:41.105Z,92.66
2019-02-22T04:46:41.075Z,92.97
2019-02-22T04:47:41.086Z,92.86
2019-02-22T04:48:41.153Z,92.76
2019-02-22T04:49:41.770Z,92.76
2019-02-22T04:50:41.024Z,92.35
2019-02-22T04:51:41.024Z,92.66
2019-02-22T04:52:41.041Z,92.55
2019-02-22T04:53:41.002Z,93.17
2019-02-22T04:54:40.991Z,92.55
2019-02-22T04:55:41.022Z,92.97
2019-02-22T04:56:41.386Z,92.86
2019-02-22T04:57:41.972Z,93.07
2019-02-22T04:58:40.951Z,92.41
2019-02-22T04:59:41.431Z,92.51
2019-02-22T05:00:40.926Z,92.55
2019-02-22T05:01:40.976Z,91.90
2019-02-22T05:02:40.910Z,92.66
2019-02-22T05:03:41.827Z,92.97
2019-02-22T05:04:40.888Z,92.31
2019-02-22T05:05:40.866Z,92.93
2019-02-22T05:06:40.858Z,93.17
2019-02-22T05:07:41.225Z,92.66
2019-02-22T05:08:40.838Z,92.86
2019-02-22T05:09:40.815Z,92.76
2019-02-22T05:10:41.261Z,92.66
2019-02-22T05:11:40.954Z,93.17
2019-02-22T05:12:40.799Z,92.61
2019-02-22T05:13:40.815Z,92.97
2019-02-22T05:14:40.781Z,92.55
2019-02-22T05:15:40.766Z,92.55
2019-02-22T05:16:40.747Z,92.61
2019-02-22T05:17:41.107Z,92.86
2019-02-22T05:18:40.736Z,92.35
2019-02-22T05:19:40.776Z,92.86
2019-02-22T05:20:40.726Z,93.38
2019-02-22T05:21:40.798Z,93.17
2019-02-22T05:22:40.685Z,93.27
2019-02-22T05:23:41.135Z,93.27
2019-02-22T05:24:41.082Z,92.61
2019-02-22T05:25:40.719Z,92.76
2019-02-22T05:26:40.650Z,93.59
2019-02-22T05:27:40.631Z,92.66
2019-02-22T05:28:40.623Z,93.48
2019-02-22T05:29:40.689Z,93.17
2019-02-22T05:30:40.607Z,93.38
2019-02-22T05:31:40.631Z,93.21
2019-02-22T05:32:40.576Z,93.83
2019-02-22T05:33:40.566Z,93.93
2019-02-22T05:34:40.565Z,93.73
2019-02-22T05:35:40.546Z,94.34
2019-02-22T05:36:40.587Z,94.04
2019-02-22T05:37:41.105Z,93.63
2019-02-22T05:38:40.506Z,94.04
2019-02-22T05:39:40.510Z,94.04
2019-02-22T05:40:40.509Z,94.04
2019-02-22T05:41:40.475Z,94.20
2019-02-22T05:42:40.462Z,93.79
2019-02-22T05:43:40.766Z,93.93
2019-02-22T05:44:40.780Z,94.34
2019-02-22T05:45:40.455Z,94.34
2019-02-22T05:46:40.444Z,93.93
2019-02-22T05:47:40.452Z,93.93
2019-02-22T05:48:40.404Z,93.83
2019-02-22T05:49:40.634Z,94.14
2019-02-22T05:50:40.397Z,93.83
2019-02-22T05:51:40.693Z,94.14
2019-02-22T05:52:40.410Z,94.04
2019-02-22T05:53:40.410Z,94.51
2019-02-22T05:54:40.350Z,93.79
2019-02-22T05:55:40.467Z,93.48
2019-02-22T05:56:40.319Z,93.48
2019-02-22T05:57:40.312Z,93.38
2019-02-22T05:58:40.637Z,93.59
2019-02-22T05:59:40.293Z,93.17
2019-02-22T06:00:40.286Z,93.27
2019-02-22T06:01:40.343Z,92.66
2019-02-22T06:02:40.253Z,92.61
2019-02-22T06:03:41.049Z,92.97
2019-02-22T06:04:40.236Z,92.35
2019-02-22T06:05:40.614Z,92.51
2019-02-22T06:06:40.442Z,92.41
2019-02-22T06:07:40.566Z,92.35
2019-02-22T06:08:40.298Z,92.31
2019-02-22T06:09:40.212Z,92.14
2019-02-22T06:10:40.190Z,92.14
2019-02-22T06:11:40.257Z,92.25
2019-02-22T06:12:43.518Z,92.25
2019-02-22T06:13:40.380Z,92.25
2019-02-22T06:14:40.287Z,92.46
2019-02-22T06:15:40.957Z,92.46
2019-02-22T06:16:40.219Z,92.35
2019-02-22T06:17:40.312Z,93.07
2019-02-22T06:18:41.142Z,92.25
2019-02-22T06:20:49.627Z,92.41
2019-02-22T06:21:49.505Z,92.04
2019-02-22T06:22:48.976Z,92.25
2019-02-22T06:23:49.647Z,92.14
2019-02-22T06:24:48.897Z,92.46
2019-02-22T06:25:48.963Z,92.55
2019-02-22T06:26:53.264Z,92.00
2019-02-22T06:27:48.974Z,92.35
2019-02-22T06:28:48.841Z,92.31
2019-02-22T06:29:49.864Z,91.90
2019-02-22T06:30:48.893Z,91.28
2019-02-22T06:31:48.781Z,91.08
2019-02-22T06:32:48.802Z,90.67
2019-02-22T06:33:50.789Z,90.97
2019-02-22T06:34:49.513Z,90.91
2019-02-22T06:35:49.105Z,90.91
2019-02-22T06:37:00.740Z,90.91
2019-02-22T06:37:49.880Z,91.02
2019-02-22T06:38:49.711Z,91.08
2019-02-22T06:39:49.158Z,91.22
2019-02-22T06:40:48.707Z,91.84
2019-02-22T06:41:48.815Z,91.84
2019-02-22T06:42:48.894Z,92.04
2019-02-22T06:43:48.612Z,91.74
2019-02-22T06:44:48.558Z,91.53
2019-02-22T06:45:48.532Z,91.94
2019-02-22T06:46:49.165Z,92.25
2019-02-22T06:47:49.065Z,92.25
2019-02-22T06:48:48.753Z,92.25
2019-02-22T06:49:49.749Z,92.35
2019-02-22T06:50:48.502Z,92.25
2019-02-22T06:51:49.540Z,92.46
2019-02-22T06:52:48.463Z,92.66
2019-02-22T06:53:48.875Z,92.25
2019-02-22T06:54:48.532Z,92.25
2019-02-22T06:55:48.431Z,92.46
2019-02-22T06:56:48.417Z,92.35
2019-02-22T06:57:48.416Z,91.84
2019-02-22T06:58:48.427Z,91.84
2019-02-22T06:59:48.505Z,92.04
2019-02-22T07:00:49.602Z,91.84
2019-02-22T07:01:49.983Z,91.80
2019-02-22T07:02:48.605Z,91.84
2019-02-22T07:03:48.397Z,92.31
2019-02-22T07:04:48.747Z,91.74
2019-02-22T07:05:48.401Z,91.84
2019-02-22T07:07:58.037Z,91.59
2019-02-22T07:08:57.528Z,91.74
2019-02-22T07:09:57.627Z,92.14
2019-02-22T07:10:57.501Z,92.00
2019-02-22T07:11:57.588Z,92.00
2019-02-22T07:12:57.587Z,91.18
2019-02-22T07:13:57.682Z,91.18
2019-02-22T07:14:58.012Z,91.33
2019-02-22T07:15:58.327Z,91.28
2019-02-22T07:16:57.512Z,91.18
2019-02-22T07:17:57.501Z,91.08
2019-02-22T07:19:00.326Z,91.18
2019-02-22T07:19:57.462Z,90.46
2019-02-22T07:20:57.498Z,90.87
2019-02-22T07:21:57.405Z,90.26
2019-02-22T07:22:57.373Z,90.46
2019-02-22T07:23:57.386Z,91.22
2019-02-22T07:24:57.374Z,90.61
2019-02-22T07:25:59.412Z,91.12
2019-02-22T07:26:57.450Z,91.22
2019-02-22T07:27:57.709Z,91.33
2019-02-22T07:28:57.331Z,91.28
2019-02-22T07:29:57.308Z,90.87
2019-02-22T07:30:57.299Z,91.63
2019-02-22T07:32:05.350Z,91.49
2019-02-22T07:32:58.402Z,91.18
2019-02-22T07:33:57.337Z,91.18
2019-02-22T07:34:57.267Z,90.67
2019-02-22T07:35:57.246Z,90.87
2019-02-22T07:36:57.234Z,90.87
2019-02-22T07:37:57.324Z,90.67
2019-02-22T07:38:57.251Z,90.97
2019-02-22T07:39:57.498Z,91.08
2019-02-22T07:40:57.216Z,90.97
2019-02-22T07:42:32.832Z,90.77
2019-02-22T07:43:07.545Z,90.67
2019-02-22T07:43:58.196Z,90.46
2019-02-22T07:44:57.279Z,90.36
2019-02-22T07:46:02.877Z,90.87
2019-02-22T07:46:57.129Z,90.97
2019-02-22T07:47:58.151Z,90.46
2019-02-22T07:48:57.096Z,90.77
2019-02-22T07:49:57.448Z,90.67
2019-02-22T07:50:58.529Z,90.67
2019-02-22T07:51:57.073Z,90.56
2019-02-22T07:52:57.493Z,90.77
2019-02-22T07:53:57.068Z,90.77
2019-02-22T07:54:57.058Z,90.67
2019-02-22T07:55:57.067Z,90.67
2019-02-22T07:56:57.800Z,90.67
2019-02-22T07:57:57.841Z,90.67
2019-02-22T07:58:56.995Z,90.97
2019-02-22T07:59:56.996Z,90.87
2019-02-22T08:00:56.966Z,90.67
2019-02-22T08:01:57.027Z,90.52
2019-02-22T08:02:56.949Z,90.87
2019-02-22T08:03:56.961Z,90.42
2019-02-22T08:04:56.956Z,90.56
2019-02-22T08:05:56.922Z,90.83
2019-02-22T08:06:56.920Z,90.62
2019-02-22T08:07:57.186Z,90.62
2019-02-22T08:08:56.910Z,91.03
2019-02-22T08:09:56.895Z,90.05
2019-02-22T08:10:56.864Z,90.32
2019-02-22T08:11:56.881Z,90.42
2019-02-22T08:12:56.856Z,90.22
2019-02-22T08:13:56.898Z,90.22
2019-02-22T08:14:56.894Z,90.22
2019-02-22T08:15:56.823Z,90.42
2019-02-22T08:16:56.841Z,90.22
2019-02-22T08:17:56.800Z,89.81
2019-02-22T08:19:01.509Z,89.81
2019-02-22T08:19:57.824Z,90.22
2019-02-22T08:20:56.764Z,89.81
2019-02-22T08:21:56.820Z,90.22
2019-02-22T08:22:56.736Z,90.22
2019-02-22T08:23:56.708Z,90.22
2019-02-22T08:24:56.740Z,90.22
2019-02-22T08:25:56.802Z,90.11
2019-02-22T08:26:56.687Z,90.11
2019-02-22T08:27:56.697Z,90.22
2019-02-22T08:28:56.678Z,90.11
2019-02-22T08:29:57.194Z,90.87
2019-02-22T08:30:56.690Z,89.90
2019-02-22T08:31:56.677Z,90.26
2019-02-22T08:32:56.641Z,90.05
2019-02-22T08:33:57.231Z,90.26
2019-02-22T08:34:56.605Z,90.46
2019-02-22T08:35:56.610Z,90.26
2019-02-22T08:36:56.584Z,90.26
2019-02-22T08:37:56.669Z,89.95
2019-02-22T08:38:56.833Z,90.87
2019-02-22T08:39:58.841Z,90.67
2019-02-22T08:40:56.541Z,90.67
2019-02-22T08:41:57.996Z,90.77
2019-02-22T08:42:56.524Z,90.36
2019-02-22T08:43:56.567Z,90.36
2019-02-22T08:44:56.510Z,90.67
2019-02-22T08:45:56.560Z,90.01
2019-02-22T08:46:56.477Z,89.84
2019-02-22T08:47:56.573Z,90.22
2019-02-22T08:48:56.451Z,90.32
2019-02-22T08:49:56.525Z,90.22
2019-02-22T08:50:56.432Z,89.39
2019-02-22T08:51:56.416Z,89.50
2019-02-22T08:52:56.492Z,89.60
2019-02-22T08:53:56.453Z,89.45
2019-02-22T08:54:56.838Z,89.60
2019-02-22T08:55:56.461Z,88.98
2019-02-22T08:56:56.399Z,88.98
2019-02-22T08:57:56.372Z,88.98
2019-02-22T08:58:56.352Z,88.94
2019-02-22T08:59:56.385Z,89.04
2019-02-22T09:00:56.325Z,89.36
2019-02-22T09:01:56.783Z,89.36
2019-02-22T09:02:56.312Z,89.56
2019-02-22T09:03:56.289Z,89.15
2019-02-22T09:04:56.318Z,89.56
2019-02-22T09:05:56.293Z,88.94
2019-02-22T09:06:56.297Z,88.74
2019-02-22T09:07:56.334Z,89.66
2019-02-22T09:08:56.259Z,88.64
2019-02-22T09:09:56.235Z,88.94
2019-02-22T09:11:00.590Z,88.84
2019-02-22T09:11:57.721Z,88.84
2019-02-22T09:12:56.203Z,88.94
2019-02-22T09:13:56.281Z,89.15
2019-02-22T09:14:56.187Z,89.56
2019-02-22T09:15:56.306Z,88.84
2019-02-22T09:16:56.306Z,88.74
2019-02-22T09:17:56.155Z,88.53
2019-02-22T09:18:56.137Z,88.29
2019-02-22T09:19:56.366Z,88.84
2019-02-22T09:20:56.106Z,88.94
2019-02-22T09:21:56.750Z,88.64
2019-02-22T09:22:56.128Z,89.11
2019-02-22T09:23:56.125Z,88.70
2019-02-22T09:24:56.323Z,88.80
2019-02-22T09:25:59.249Z,88.39
2019-02-22T09:26:56.830Z,88.90
2019-02-22T09:27:57.793Z,88.39
2019-02-22T09:28:57.872Z,88.18
2019-02-22T09:29:59.106Z,88.39
2019-02-22T09:30:56.816Z,88.39
2019-02-22T09:31:56.515Z,88.08
2019-02-22T09:32:56.122Z,88.29
2019-02-22T09:33:56.248Z,87.73
2019-02-22T09:34:55.978Z,87.67
2019-02-22T09:35:56.037Z,87.26
2019-02-22T09:36:56.833Z,87.88
2019-02-22T09:37:56.041Z,87.77
2019-02-22T09:38:55.935Z,87.98
2019-02-22T09:39:56.793Z,88.59
2019-02-22T09:40:56.852Z,88.80
2019-02-22T09:41:56.068Z,88.70
2019-02-22T09:42:56.735Z,89.21
2019-02-22T09:43:56.763Z,88.59
2019-02-22T09:44:55.870Z,88.18
2019-02-22T09:45:55.847Z,88.59
2019-02-22T09:47:00.789Z,89.00
2019-02-22T09:47:56.721Z,89.00
2019-02-22T09:48:56.045Z,88.39
2019-02-22T09:49:55.865Z,88.04
2019-02-22T09:50:55.827Z,88.29
2019-02-22T09:51:55.812Z,88.96
2019-02-22T09:52:55.768Z,88.35
2019-02-22T09:53:55.763Z,88.76
2019-02-22T09:54:55.779Z,88.45
2019-02-22T09:55:57.390Z,88.35
2019-02-22T09:56:55.846Z,88.14
2019-02-22T09:57:55.733Z,88.24
2019-02-22T09:58:55.783Z,88.14
2019-02-22T09:59:55.706Z,87.43
2019-02-22T10:00:55.686Z,88.45
2019-02-22T10:01:55.762Z,88.45
2019-02-22T10:02:55.709Z,88.24
2019-02-22T10:03:56.713Z,88.14
2019-02-22T10:04:55.731Z,88.14
2019-02-22T10:05:55.712Z,88.35
2019-02-22T10:06:55.630Z,88.14
2019-02-22T10:07:55.657Z,88.04
2019-02-22T10:08:56.280Z,87.63
2019-02-22T10:09:55.596Z,87.53
2019-02-22T10:10:55.578Z,87.43
2019-02-22T10:11:55.604Z,87.84
2019-02-22T10:12:55.560Z,87.73
2019-02-22T10:14:06.361Z,87.63
2019-02-22T10:14:56.542Z,86.88
2019-02-22T10:15:55.567Z,86.46
2019-02-22T10:16:55.532Z,85.85
2019-02-22T10:17:55.535Z,85.61
2019-02-22T10:18:55.528Z,85.03
2019-02-22T10:19:55.727Z,85.20
2019-02-22T10:20:55.472Z,84.79
2019-02-22T10:21:57.511Z,84.58
2019-02-22T10:22:55.466Z,83.97
2019-02-22T10:23:55.448Z,83.36
2019-02-22T10:24:55.446Z,83.01
2019-02-22T10:25:55.456Z,83.11
2019-02-22T10:26:55.446Z,83.01
2019-02-22T10:27:55.410Z,82.50
2019-02-22T10:28:55.386Z,81.58
2019-02-22T10:29:55.433Z,81.17
2019-02-22T10:30:55.387Z,81.79
2019-02-22T10:31:55.431Z,81.88
2019-02-22T10:32:55.433Z,81.85
2019-02-22T10:33:55.479Z,81.38
2019-02-22T10:34:55.312Z,81.34
2019-02-22T10:35:55.317Z,80.73
2019-02-22T10:36:55.309Z,81.13
2019-02-22T10:37:55.332Z,80.21
2019-02-22T10:38:58.376Z,79.80
2019-02-22T10:39:55.308Z,80.38
2019-02-22T10:40:55.288Z,79.66
2019-02-22T10:41:55.263Z,78.64
2019-02-22T10:42:55.253Z,76.90
2019-02-22T10:43:55.286Z,77.93
2019-02-22T10:44:55.217Z,77.04
2019-02-22T10:45:55.215Z,76.84
2019-02-22T10:46:55.198Z,77.25
2019-02-22T10:47:55.277Z,78.38
2019-02-22T10:48:55.173Z,78.68
2019-02-22T10:49:55.352Z,79.74
2019-02-22T10:50:55.158Z,80.56
2019-02-22T10:51:55.183Z,81.10
2019-02-22T10:53:02.146Z,81.31
2019-02-22T10:53:56.826Z,81.93
2019-02-22T10:54:55.114Z,81.72
2019-02-22T10:55:55.363Z,82.34
2019-02-22T10:56:55.123Z,82.43
2019-02-22T10:57:55.095Z,82.13
2019-02-22T10:58:55.077Z,83.09
2019-02-22T10:59:55.061Z,82.84
2019-02-22T11:01:01.797Z,82.13
2019-02-22T11:01:55.096Z,82.23
2019-02-22T11:02:55.758Z,81.76
2019-02-22T11:03:55.042Z,80.33
2019-02-22T11:04:54.995Z,81.96
2019-02-22T11:05:55.805Z,82.37
2019-02-22T11:06:55.003Z,81.76
2019-02-22T11:07:56.760Z,81.65
2019-02-22T11:08:54.971Z,81.96
2019-02-22T11:09:55.112Z,81.93
2019-02-22T11:10:54.927Z,81.24
2019-02-22T11:11:54.940Z,81.65
2019-02-22T11:12:54.937Z,81.62
2019-02-22T11:13:55.323Z,81.41
2019-02-22T11:14:55.883Z,82.03
2019-02-22T11:15:54.928Z,81.51
2019-02-22T11:16:54.892Z,81.51
2019-02-22T11:17:54.865Z,81.21
2019-02-22T11:18:54.898Z,81.21
2019-02-22T11:19:54.877Z,80.87
2019-02-22T11:20:55.337Z,81.48
2019-02-22T11:21:54.833Z,81.48
2019-02-22T11:22:54.805Z,80.87
2019-02-22T11:23:54.806Z,81.17
2019-02-22T11:24:54.783Z,81.38
2019-02-22T11:25:54.878Z,81.38
2019-02-22T11:26:54.794Z,81.88
2019-02-22T11:27:55.782Z,81.58
2019-02-22T11:28:54.760Z,80.56
2019-02-22T11:29:54.762Z,80.46
2019-02-22T11:30:54.728Z,80.46
2019-02-22T11:31:54.752Z,79.84
2019-02-22T11:32:54.729Z,78.75
2019-02-22T11:33:55.191Z,78.59
2019-02-22T11:34:54.692Z,78.34
2019-02-22T11:35:54.689Z,78.38
2019-02-22T11:36:54.659Z,78.28
2019-02-22T11:37:54.793Z,78.89
2019-02-22T11:38:54.683Z,78.89
2019-02-22T11:39:54.625Z,78.79
2019-02-22T11:40:54.674Z,78.89
2019-02-22T11:41:54.653Z,78.69
2019-02-22T11:42:55.196Z,78.34
2019-02-22T11:43:54.672Z,78.45
2019-02-22T11:44:54.570Z,78.59
2019-02-22T11:45:54.628Z,78.38
2019-02-22T11:46:54.554Z,78.14
2019-02-22T11:47:54.548Z,78.45
2019-02-22T11:48:54.536Z,78.45
2019-02-22T11:49:54.686Z,78.31
2019-02-22T11:50:54.517Z,77.73
2019-02-22T11:51:56.012Z,77.73
2019-02-22T11:52:54.483Z,77.94
2019-02-22T11:53:54.472Z,78.14
2019-02-22T11:54:54.488Z,78.65
2019-02-22T11:55:54.487Z,78.34
2019-02-22T11:56:54.507Z,78.52
2019-02-22T11:57:54.438Z,78.11
2019-02-22T11:58:54.502Z,77.49
2019-02-22T11:59:54.420Z,77.29
2019-02-22T12:00:54.470Z,77.83
2019-02-22T12:01:55.342Z,77.49
2019-02-22T12:02:54.382Z,77.59
2019-02-22T12:03:54.797Z,77.73
2019-02-22T12:04:54.388Z,77.53
2019-02-22T12:05:54.370Z,77.32
2019-02-22T12:06:54.360Z,77.12
2019-02-22T12:07:54.553Z,76.54
2019-02-22T12:08:54.330Z,77.15
2019-02-22T12:09:54.314Z,77.12
2019-02-22T12:10:55.238Z,77.01
2019-02-22T12:11:54.326Z,77.32
2019-02-22T12:12:54.334Z,77.53
2019-02-22T12:13:54.315Z,77.53
2019-02-22T12:14:54.264Z,77.42
2019-02-22T12:15:54.266Z,77.32
2019-02-22T12:16:54.234Z,76.91
2019-02-22T12:17:54.267Z,77.53
2019-02-22T12:18:54.232Z,76.91
2019-02-22T12:19:54.358Z,76.09
2019-02-22T12:20:54.210Z,76.40
2019-02-22T12:21:54.204Z,75.59
2019-02-22T12:22:54.795Z,76.23
2019-02-22T12:23:54.279Z,76.30
2019-02-22T12:24:54.309Z,76.20
2019-02-22T12:25:54.219Z,76.09
2019-02-22T12:26:54.123Z,75.79
2019-02-22T12:27:54.117Z,75.45
2019-02-22T12:28:54.160Z,74.76
2019-02-22T12:29:54.123Z,75.14
2019-02-22T12:30:54.121Z,75.96
2019-02-22T12:31:54.373Z,74.93
2019-02-22T12:32:54.057Z,73.81
2019-02-22T12:33:54.128Z,74.93
2019-02-22T12:34:54.046Z,74.32
2019-02-22T12:35:54.041Z,73.71
2019-02-22T12:36:54.067Z,74.08
2019-02-22T12:37:54.110Z,74.39
2019-02-22T12:38:54.005Z,72.65
2019-02-22T12:39:54.063Z,72.96
2019-02-22T12:40:54.758Z,72.34
2019-02-22T12:41:54.758Z,72.55
2019-02-22T12:42:54.842Z,72.34
2019-02-22T12:43:54.060Z,72.04
2019-02-22T12:45:02.495Z,72.21
2019-02-22T12:45:54.926Z,72.52
2019-02-22T12:46:54.241Z,71.50
2019-02-22T12:47:53.994Z,71.50
2019-02-22T12:48:54.707Z,70.98
2019-02-22T12:49:54.315Z,71.59
2019-02-22T12:50:53.900Z,71.39
2019-02-22T12:51:54.945Z,70.98
2019-02-22T12:52:53.958Z,71.29
2019-02-22T12:53:53.890Z,70.88
2019-02-22T12:54:53.913Z,71.09
2019-02-22T12:55:54.132Z,71.09